sensor_id;sensor_type;location;lat;lon;timestamp;P1;durP1;ratioP1;P2;durP2;ratioP2
22849;SDS011;11591;44.792;10.358;2023-07-29T05:24:49;10.40;;;4.97;;
22849;SDS011;11591;44.792;10.358;2023-07-29T05:27:15;10.45;;;5.00;;
22849;SDS011;11591;44.792;10.358;2023-07-29T05:29:41;11.30;;;5.38;;
22849;SDS011;11591;44.792;10.358;2023-07-29T05:32:07;11.95;;;6.25;;
22849;SDS011;11591;44.792;10.358;2023-07-29T05:34:33;11.30;;;5.38;;
22849;SDS011;11591;44.792;10.358;2023-07-29T05:36:59;12.60;;;5.68;;
22849;SDS011;11591;44.792;10.358;2023-07-29T05:39:25;6.15;;;4.90;;
22849;SDS011;11591;44.792;10.358;2023-07-29T05:41:50;12.45;;;5.72;;
22849;SDS011;11591;44.792;10.358;2023-07-29T05:44:16;7.72;;;4.68;;
22849;SDS011;11591;44.792;10.358;2023-07-29T05:46:42;14.32;;;5.32;;
22849;SDS011;11591;44.792;10.358;2023-07-29T05:49:08;9.25;;;5.05;;
22849;SDS011;11591;44.792;10.358;2023-07-29T05:51:34;12.18;;;5.30;;
22849;SDS011;11591;44.792;10.358;2023-07-29T05:54:00;11.73;;;4.72;;
22849;SDS011;11591;44.792;10.358;2023-07-29T05:56:26;12.10;;;5.10;;
22849;SDS011;11591;44.792;10.358;2023-07-29T05:58:52;11.15;;;4.72;;
22849;SDS011;11591;44.792;10.358;2023-07-29T06:01:19;9.60;;;5.20;;
22849;SDS011;11591;44.792;10.358;2023-07-29T06:03:46;9.07;;;5.90;;
22849;SDS011;11591;44.792;10.358;2023-07-29T06:06:12;11.40;;;6.07;;
22849;SDS011;11591;44.792;10.358;2023-07-29T06:08:38;14.93;;;6.70;;
22849;SDS011;11591;44.792;10.358;2023-07-29T06:11:04;12.40;;;5.75;;
22849;SDS011;11591;44.792;10.358;2023-07-29T06:13:31;8.82;;;4.90;;
22849;SDS011;11591;44.792;10.358;2023-07-29T06:15:57;8.10;;;4.95;;
22849;SDS011;11591;44.792;10.358;2023-07-29T06:18:24;9.18;;;4.68;;
22849;SDS011;11591;44.792;10.358;2023-07-29T06:20:50;12.05;;;5.18;;
22849;SDS011;11591;44.792;10.358;2023-07-29T06:23:16;13.32;;;7.63;;
22849;SDS011;11591;44.792;10.358;2023-07-29T06:25:42;21.80;;;13.25;;
22849;SDS011;11591;44.792;10.358;2023-07-29T06:28:08;11.77;;;6.10;;
22849;SDS011;11591;44.792;10.358;2023-07-29T06:30:35;6.68;;;5.05;;
22849;SDS011;11591;44.792;10.358;2023-07-29T06:33:01;6.55;;;4.80;;
22849;SDS011;11591;44.792;10.358;2023-07-29T06:35:28;12.60;;;5.05;;
22849;SDS011;11591;44.792;10.358;2023-07-29T06:37:54;6.35;;;4.40;;
22849;SDS011;11591;44.792;10.358;2023-07-29T06:40:20;11.45;;;5.25;;
22849;SDS011;11591;44.792;10.358;2023-07-29T06:42:46;7.45;;;4.47;;
22849;SDS011;11591;44.792;10.358;2023-07-29T06:45:11;8.10;;;4.93;;
22849;SDS011;11591;44.792;10.358;2023-07-29T06:47:37;10.77;;;4.70;;
22849;SDS011;11591;44.792;10.358;2023-07-29T06:50:03;10.10;;;4.85;;
22849;SDS011;11591;44.792;10.358;2023-07-29T06:52:29;10.55;;;4.78;;
22849;SDS011;11591;44.792;10.358;2023-07-29T06:54:55;8.68;;;4.65;;
22849;SDS011;11591;44.792;10.358;2023-07-29T06:57:21;7.15;;;3.97;;
22849;SDS011;11591;44.792;10.358;2023-07-29T06:59:47;6.38;;;4.22;;
22849;SDS011;11591;44.792;10.358;2023-07-29T07:02:13;5.50;;;4.07;;
22849;SDS011;11591;44.792;10.358;2023-07-29T07:04:39;12.43;;;5.05;;
22849;SDS011;11591;44.792;10.358;2023-07-29T07:07:04;5.95;;;4.60;;
22849;SDS011;11591;44.792;10.358;2023-07-29T07:09:30;7.30;;;4.03;;
22849;SDS011;11591;44.792;10.358;2023-07-29T07:11:56;9.48;;;4.43;;
22849;SDS011;11591;44.792;10.358;2023-07-29T07:14:22;12.75;;;4.22;;
22849;SDS011;11591;44.792;10.358;2023-07-29T07:16:48;9.25;;;3.80;;
22849;SDS011;11591;44.792;10.358;2023-07-29T07:19:13;9.45;;;4.30;;
22849;SDS011;11591;44.792;10.358;2023-07-29T07:21:39;6.32;;;3.78;;
22849;SDS011;11591;44.792;10.358;2023-07-29T07:24:05;9.65;;;4.30;;
22849;SDS011;11591;44.792;10.358;2023-07-29T07:26:31;7.78;;;3.80;;
22849;SDS011;11591;44.792;10.358;2023-07-29T07:28:57;6.75;;;4.32;;
22849;SDS011;11591;44.792;10.358;2023-07-29T07:31:22;6.40;;;3.25;;
22849;SDS011;11591;44.792;10.358;2023-07-29T07:33:48;7.22;;;3.30;;
22849;SDS011;11591;44.792;10.358;2023-07-29T07:36:14;8.80;;;3.80;;
22849;SDS011;11591;44.792;10.358;2023-07-29T07:38:41;7.03;;;3.70;;
22849;SDS011;11591;44.792;10.358;2023-07-29T07:41:06;7.93;;;4.03;;
22849;SDS011;11591;44.792;10.358;2023-07-29T07:43:32;11.10;;;4.35;;
22849;SDS011;11591;44.792;10.358;2023-07-29T07:45:58;12.07;;;3.90;;
22849;SDS011;11591;44.792;10.358;2023-07-29T07:48:25;9.10;;;4.95;;
22849;SDS011;11591;44.792;10.358;2023-07-29T07:50:51;8.57;;;4.18;;
22849;SDS011;11591;44.792;10.358;2023-07-29T07:53:17;12.25;;;7.00;;
22849;SDS011;11591;44.792;10.358;2023-07-29T07:55:45;10.20;;;4.28;;
22849;SDS011;11591;44.792;10.358;2023-07-29T07:58:11;7.07;;;4.10;;
22849;SDS011;11591;44.792;10.358;2023-07-29T08:00:36;8.98;;;4.00;;
22849;SDS011;11591;44.792;10.358;2023-07-29T08:03:02;8.13;;;4.28;;
22849;SDS011;11591;44.792;10.358;2023-07-29T08:05:29;8.30;;;3.75;;
22849;SDS011;11591;44.792;10.358;2023-07-29T08:07:54;7.07;;;3.78;;
22849;SDS011;11591;44.792;10.358;2023-07-29T08:10:21;6.05;;;3.80;;
22849;SDS011;11591;44.792;10.358;2023-07-29T08:12:46;8.43;;;4.60;;
22849;SDS011;11591;44.792;10.358;2023-07-29T08:15:12;6.88;;;3.33;;
22849;SDS011;11591;44.792;10.358;2023-07-29T08:17:38;6.63;;;4.10;;
22849;SDS011;11591;44.792;10.358;2023-07-29T08:20:04;6.38;;;3.85;;
22849;SDS011;11591;44.792;10.358;2023-07-29T08:22:30;6.32;;;3.83;;
22849;SDS011;11591;44.792;10.358;2023-07-29T08:24:57;7.28;;;3.72;;
22849;SDS011;11591;44.792;10.358;2023-07-29T08:27:22;9.27;;;3.88;;
22849;SDS011;11591;44.792;10.358;2023-07-29T08:29:48;7.32;;;3.80;;
22849;SDS011;11591;44.792;10.358;2023-07-29T08:32:14;10.80;;;4.30;;
22849;SDS011;11591;44.792;10.358;2023-07-29T08:34:40;7.63;;;4.07;;
22849;SDS011;11591;44.792;10.358;2023-07-29T08:37:07;11.27;;;3.90;;
22849;SDS011;11591;44.792;10.358;2023-07-29T08:39:33;8.48;;;3.85;;
22849;SDS011;11591;44.792;10.358;2023-07-29T08:44:43;10.40;;;3.72;;
22849;SDS011;11591;44.792;10.358;2023-07-29T08:47:10;5.53;;;3.60;;
22849;SDS011;11591;44.792;10.358;2023-07-29T08:49:38;6.25;;;3.50;;
22849;SDS011;11591;44.792;10.358;2023-07-29T08:52:05;10.68;;;4.28;;
22849;SDS011;11591;44.792;10.358;2023-07-29T08:54:32;8.95;;;3.72;;
22849;SDS011;11591;44.792;10.358;2023-07-29T08:56:58;7.45;;;3.88;;
22849;SDS011;11591;44.792;10.358;2023-07-29T08:59:25;7.70;;;4.00;;
22849;SDS011;11591;44.792;10.358;2023-07-29T09:01:53;8.43;;;4.20;;
22849;SDS011;11591;44.792;10.358;2023-07-29T09:04:21;6.30;;;3.78;;
22849;SDS011;11591;44.792;10.358;2023-07-29T09:06:49;7.90;;;4.63;;
22849;SDS011;11591;44.792;10.358;2023-07-29T09:09:16;8.85;;;3.70;;
22849;SDS011;11591;44.792;10.358;2023-07-29T09:11:43;9.48;;;4.18;;
22849;SDS011;11591;44.792;10.358;2023-07-29T09:14:09;9.98;;;4.60;;
22849;SDS011;11591;44.792;10.358;2023-07-29T09:16:35;9.32;;;4.10;;
22849;SDS011;11591;44.792;10.358;2023-07-29T09:19:02;6.88;;;4.05;;
22849;SDS011;11591;44.792;10.358;2023-07-29T09:21:29;5.90;;;3.70;;
22849;SDS011;11591;44.792;10.358;2023-07-29T09:23:55;6.60;;;4.00;;
22849;SDS011;11591;44.792;10.358;2023-07-29T09:26:27;6.50;;;3.65;;
22849;SDS011;11591;44.792;10.358;2023-07-29T09:28:54;6.55;;;3.70;;
22849;SDS011;11591;44.792;10.358;2023-07-29T09:31:24;6.20;;;4.00;;
22849;SDS011;11591;44.792;10.358;2023-07-29T09:33:58;8.23;;;4.28;;
22849;SDS011;11591;44.792;10.358;2023-07-29T09:36:25;10.48;;;3.95;;
22849;SDS011;11591;44.792;10.358;2023-07-29T09:38:52;8.80;;;3.78;;
22849;SDS011;11591;44.792;10.358;2023-07-29T09:41:19;7.80;;;4.18;;
22849;SDS011;11591;44.792;10.358;2023-07-29T09:43:48;8.73;;;3.95;;
22849;SDS011;11591;44.792;10.358;2023-07-29T09:46:22;7.35;;;3.80;;
22849;SDS011;11591;44.792;10.358;2023-07-29T09:48:52;10.23;;;3.80;;
22849;SDS011;11591;44.792;10.358;2023-07-29T09:51:22;7.13;;;3.95;;
22849;SDS011;11591;44.792;10.358;2023-07-29T09:53:50;9.38;;;4.70;;
22849;SDS011;11591;44.792;10.358;2023-07-29T09:56:16;12.63;;;4.30;;
22849;SDS011;11591;44.792;10.358;2023-07-29T09:58:43;9.18;;;3.83;;
22849;SDS011;11591;44.792;10.358;2023-07-29T10:01:10;7.10;;;3.53;;
22849;SDS011;11591;44.792;10.358;2023-07-29T10:03:37;6.75;;;3.83;;
22849;SDS011;11591;44.792;10.358;2023-07-29T10:06:03;5.93;;;3.40;;
22849;SDS011;11591;44.792;10.358;2023-07-29T10:08:30;7.28;;;4.03;;
22849;SDS011;11591;44.792;10.358;2023-07-29T10:11:01;7.15;;;3.72;;
22849;SDS011;11591;44.792;10.358;2023-07-29T10:13:27;8.25;;;4.03;;
22849;SDS011;11591;44.792;10.358;2023-07-29T10:15:54;10.05;;;3.85;;
22849;SDS011;11591;44.792;10.358;2023-07-29T10:18:21;7.07;;;3.60;;
22849;SDS011;11591;44.792;10.358;2023-07-29T10:20:48;10.95;;;3.55;;
22849;SDS011;11591;44.792;10.358;2023-07-29T10:23:16;6.70;;;3.58;;
22849;SDS011;11591;44.792;10.358;2023-07-29T10:25:47;9.02;;;4.60;;
22849;SDS011;11591;44.792;10.358;2023-07-29T10:28:15;7.32;;;3.92;;
22849;SDS011;11591;44.792;10.358;2023-07-29T10:30:45;8.55;;;4.03;;
22849;SDS011;11591;44.792;10.358;2023-07-29T10:33:11;6.65;;;3.50;;
22849;SDS011;11591;44.792;10.358;2023-07-29T10:35:37;6.45;;;3.45;;
22849;SDS011;11591;44.792;10.358;2023-07-29T10:38:05;7.90;;;3.92;;
22849;SDS011;11591;44.792;10.358;2023-07-29T10:40:44;8.55;;;4.05;;
22849;SDS011;11591;44.792;10.358;2023-07-29T10:43:36;7.55;;;3.90;;
22849;SDS011;11591;44.792;10.358;2023-07-29T10:48:43;10.10;;;3.47;;
22849;SDS011;11591;44.792;10.358;2023-07-29T10:51:25;8.00;;;4.07;;
22849;SDS011;11591;44.792;10.358;2023-07-29T10:56:40;7.03;;;4.03;;
22849;SDS011;11591;44.792;10.358;2023-07-29T11:01:44;4.78;;;3.28;;
22849;SDS011;11591;44.792;10.358;2023-07-29T11:04:24;7.38;;;3.92;;
22849;SDS011;11591;44.792;10.358;2023-07-29T11:07:01;7.20;;;3.47;;
22849;SDS011;11591;44.792;10.358;2023-07-29T11:20:10;6.55;;;3.90;;
22849;SDS011;11591;44.792;10.358;2023-07-29T11:22:37;7.50;;;4.03;;
22849;SDS011;11591;44.792;10.358;2023-07-29T11:25:04;5.13;;;3.60;;
22849;SDS011;11591;44.792;10.358;2023-07-29T11:27:31;6.15;;;3.38;;
22849;SDS011;11591;44.792;10.358;2023-07-29T11:29:58;7.25;;;3.60;;
22849;SDS011;11591;44.792;10.358;2023-07-29T11:32:25;11.18;;;3.40;;
22849;SDS011;11591;44.792;10.358;2023-07-29T11:34:51;6.63;;;3.83;;
22849;SDS011;11591;44.792;10.358;2023-07-29T11:37:17;8.73;;;3.30;;
22849;SDS011;11591;44.792;10.358;2023-07-29T11:39:46;5.75;;;3.40;;
22849;SDS011;11591;44.792;10.358;2023-07-29T11:42:12;4.30;;;2.95;;
22849;SDS011;11591;44.792;10.358;2023-07-29T11:44:41;8.02;;;3.97;;
22849;SDS011;11591;44.792;10.358;2023-07-29T11:47:08;6.95;;;5.30;;
22849;SDS011;11591;44.792;10.358;2023-07-29T11:49:35;11.00;;;3.70;;
22849;SDS011;11591;44.792;10.358;2023-07-29T11:52:02;9.32;;;4.38;;
22849;SDS011;11591;44.792;10.358;2023-07-29T11:54:28;9.00;;;5.25;;
22849;SDS011;11591;44.792;10.358;2023-07-29T11:56:55;5.93;;;4.13;;
22849;SDS011;11591;44.792;10.358;2023-07-29T11:59:21;7.47;;;4.25;;
22849;SDS011;11591;44.792;10.358;2023-07-29T12:01:47;7.07;;;3.75;;
22849;SDS011;11591;44.792;10.358;2023-07-29T12:04:13;5.25;;;3.30;;
22849;SDS011;11591;44.792;10.358;2023-07-29T12:06:39;4.07;;;3.22;;
22849;SDS011;11591;44.792;10.358;2023-07-29T12:09:06;5.82;;;3.55;;
22849;SDS011;11591;44.792;10.358;2023-07-29T12:11:32;8.60;;;3.20;;
22849;SDS011;11591;44.792;10.358;2023-07-29T12:14:02;11.55;;;3.15;;
22849;SDS011;11591;44.792;10.358;2023-07-29T12:16:28;8.90;;;3.30;;
22849;SDS011;11591;44.792;10.358;2023-07-29T12:19:00;5.28;;;3.00;;
22849;SDS011;11591;44.792;10.358;2023-07-29T12:21:26;4.95;;;2.97;;
22849;SDS011;11591;44.792;10.358;2023-07-29T12:23:51;5.80;;;3.00;;
22849;SDS011;11591;44.792;10.358;2023-07-29T12:26:17;3.85;;;2.90;;
22849;SDS011;11591;44.792;10.358;2023-07-29T12:28:46;5.63;;;3.10;;
22849;SDS011;11591;44.792;10.358;2023-07-29T12:31:15;5.07;;;2.85;;
22849;SDS011;11591;44.792;10.358;2023-07-29T12:33:41;6.80;;;3.42;;
22849;SDS011;11591;44.792;10.358;2023-07-29T12:36:07;6.22;;;3.17;;
22849;SDS011;11591;44.792;10.358;2023-07-29T12:38:33;5.60;;;2.92;;
22849;SDS011;11591;44.792;10.358;2023-07-29T12:41:00;5.45;;;2.97;;
22849;SDS011;11591;44.792;10.358;2023-07-29T12:43:26;5.03;;;2.70;;
22849;SDS011;11591;44.792;10.358;2023-07-29T12:45:52;3.72;;;3.05;;
22849;SDS011;11591;44.792;10.358;2023-07-29T12:48:18;4.30;;;3.28;;
22849;SDS011;11591;44.792;10.358;2023-07-29T12:50:44;8.50;;;3.50;;
22849;SDS011;11591;44.792;10.358;2023-07-29T12:53:10;6.68;;;2.92;;
22849;SDS011;11591;44.792;10.358;2023-07-29T12:55:36;5.30;;;2.90;;
22849;SDS011;11591;44.792;10.358;2023-07-29T12:58:02;7.28;;;3.92;;
22849;SDS011;11591;44.792;10.358;2023-07-29T13:00:28;7.40;;;3.15;;
22849;SDS011;11591;44.792;10.358;2023-07-29T13:02:54;5.05;;;2.58;;
22849;SDS011;11591;44.792;10.358;2023-07-29T13:05:20;4.30;;;2.83;;
22849;SDS011;11591;44.792;10.358;2023-07-29T13:07:46;6.65;;;2.70;;
22849;SDS011;11591;44.792;10.358;2023-07-29T13:10:12;4.65;;;2.88;;
22849;SDS011;11591;44.792;10.358;2023-07-29T13:12:39;5.25;;;3.45;;
22849;SDS011;11591;44.792;10.358;2023-07-29T13:15:05;4.32;;;3.00;;
22849;SDS011;11591;44.792;10.358;2023-07-29T13:17:32;3.92;;;2.83;;
22849;SDS011;11591;44.792;10.358;2023-07-29T13:19:58;5.60;;;2.70;;
22849;SDS011;11591;44.792;10.358;2023-07-29T13:22:24;3.88;;;2.50;;
22849;SDS011;11591;44.792;10.358;2023-07-29T13:24:50;5.72;;;2.88;;
22849;SDS011;11591;44.792;10.358;2023-07-29T13:27:16;6.13;;;3.15;;
22849;SDS011;11591;44.792;10.358;2023-07-29T13:29:41;6.50;;;2.80;;
22849;SDS011;11591;44.792;10.358;2023-07-29T13:32:08;5.28;;;3.25;;
22849;SDS011;11591;44.792;10.358;2023-07-29T13:34:34;5.25;;;3.65;;
22849;SDS011;11591;44.792;10.358;2023-07-29T13:37:00;5.95;;;3.38;;
22849;SDS011;11591;44.792;10.358;2023-07-29T13:39:26;5.03;;;3.35;;
22849;SDS011;11591;44.792;10.358;2023-07-29T13:41:52;5.78;;;3.20;;
22849;SDS011;11591;44.792;10.358;2023-07-29T13:44:19;8.52;;;3.10;;
22849;SDS011;11591;44.792;10.358;2023-07-29T13:46:45;5.75;;;3.50;;
22849;SDS011;11591;44.792;10.358;2023-07-29T13:49:11;6.32;;;3.58;;
22849;SDS011;11591;44.792;10.358;2023-07-29T13:51:37;7.22;;;2.60;;
22849;SDS011;11591;44.792;10.358;2023-07-29T13:54:02;4.88;;;2.35;;
22849;SDS011;11591;44.792;10.358;2023-07-29T13:56:28;7.20;;;2.50;;
22849;SDS011;11591;44.792;10.358;2023-07-29T13:58:54;7.22;;;2.63;;
22849;SDS011;11591;44.792;10.358;2023-07-29T14:01:20;6.18;;;2.92;;
22849;SDS011;11591;44.792;10.358;2023-07-29T14:03:46;4.72;;;2.78;;
22849;SDS011;11591;44.792;10.358;2023-07-29T14:06:11;4.35;;;2.58;;
22849;SDS011;11591;44.792;10.358;2023-07-29T14:08:37;3.83;;;2.58;;
22849;SDS011;11591;44.792;10.358;2023-07-29T14:11:06;5.47;;;2.60;;
22849;SDS011;11591;44.792;10.358;2023-07-29T14:13:31;4.63;;;2.90;;
22849;SDS011;11591;44.792;10.358;2023-07-29T14:15:57;5.95;;;2.70;;
22849;SDS011;11591;44.792;10.358;2023-07-29T14:18:28;4.28;;;2.72;;
22849;SDS011;11591;44.792;10.358;2023-07-29T14:20:54;5.45;;;3.20;;
22849;SDS011;11591;44.792;10.358;2023-07-29T14:23:19;12.20;;;2.75;;
22849;SDS011;11591;44.792;10.358;2023-07-29T14:25:45;4.40;;;2.30;;
22849;SDS011;11591;44.792;10.358;2023-07-29T14:28:12;5.75;;;3.17;;
22849;SDS011;11591;44.792;10.358;2023-07-29T14:30:39;4.63;;;2.70;;
22849;SDS011;11591;44.792;10.358;2023-07-29T14:33:06;4.65;;;2.80;;
22849;SDS011;11591;44.792;10.358;2023-07-29T14:35:32;5.88;;;3.38;;
22849;SDS011;11591;44.792;10.358;2023-07-29T14:37:59;8.98;;;5.72;;
22849;SDS011;11591;44.792;10.358;2023-07-29T14:40:24;9.52;;;3.55;;
22849;SDS011;11591;44.792;10.358;2023-07-29T14:42:50;3.53;;;2.70;;
22849;SDS011;11591;44.792;10.358;2023-07-29T14:45:16;5.90;;;2.50;;
22849;SDS011;11591;44.792;10.358;2023-07-29T14:47:42;4.85;;;2.72;;
22849;SDS011;11591;44.792;10.358;2023-07-29T14:50:08;9.52;;;2.75;;
22849;SDS011;11591;44.792;10.358;2023-07-29T14:52:33;3.28;;;2.53;;
22849;SDS011;11591;44.792;10.358;2023-07-29T14:54:59;4.10;;;2.78;;
22849;SDS011;11591;44.792;10.358;2023-07-29T14:57:25;6.18;;;2.20;;
22849;SDS011;11591;44.792;10.358;2023-07-29T14:59:51;7.18;;;2.70;;
22849;SDS011;11591;44.792;10.358;2023-07-29T15:02:17;5.90;;;3.50;;
22849;SDS011;11591;44.792;10.358;2023-07-29T15:04:43;6.28;;;3.42;;
22849;SDS011;11591;44.792;10.358;2023-07-29T15:07:09;5.82;;;2.75;;
22849;SDS011;11591;44.792;10.358;2023-07-29T15:09:34;7.07;;;3.10;;
22849;SDS011;11591;44.792;10.358;2023-07-29T15:12:01;6.50;;;3.17;;
22849;SDS011;11591;44.792;10.358;2023-07-29T15:14:27;8.93;;;3.60;;
22849;SDS011;11591;44.792;10.358;2023-07-29T15:16:53;4.57;;;2.97;;
22849;SDS011;11591;44.792;10.358;2023-07-29T15:19:18;5.35;;;3.13;;
22849;SDS011;11591;44.792;10.358;2023-07-29T15:21:44;4.93;;;2.95;;
22849;SDS011;11591;44.792;10.358;2023-07-29T15:24:10;6.50;;;2.80;;
22849;SDS011;11591;44.792;10.358;2023-07-29T15:26:36;6.63;;;3.30;;
22849;SDS011;11591;44.792;10.358;2023-07-29T15:29:02;5.60;;;2.80;;
22849;SDS011;11591;44.792;10.358;2023-07-29T15:31:28;7.97;;;2.72;;
22849;SDS011;11591;44.792;10.358;2023-07-29T15:33:54;6.35;;;3.05;;
22849;SDS011;11591;44.792;10.358;2023-07-29T15:36:20;3.88;;;2.50;;
22849;SDS011;11591;44.792;10.358;2023-07-29T15:38:46;4.72;;;2.70;;
22849;SDS011;11591;44.792;10.358;2023-07-29T15:41:11;5.60;;;3.70;;
22849;SDS011;11591;44.792;10.358;2023-07-29T15:43:37;5.72;;;3.20;;
22849;SDS011;11591;44.792;10.358;2023-07-29T15:46:03;5.45;;;2.80;;
22849;SDS011;11591;44.792;10.358;2023-07-29T15:48:29;3.28;;;2.30;;
22849;SDS011;11591;44.792;10.358;2023-07-29T15:50:55;3.78;;;2.50;;
22849;SDS011;11591;44.792;10.358;2023-07-29T15:53:20;6.18;;;2.90;;
22849;SDS011;11591;44.792;10.358;2023-07-29T15:55:46;4.40;;;2.60;;
22849;SDS011;11591;44.792;10.358;2023-07-29T15:58:12;3.65;;;2.60;;
22849;SDS011;11591;44.792;10.358;2023-07-29T16:00:38;5.30;;;2.35;;
22849;SDS011;11591;44.792;10.358;2023-07-29T16:03:04;5.75;;;3.10;;
22849;SDS011;11591;44.792;10.358;2023-07-29T16:05:30;6.53;;;2.40;;
22849;SDS011;11591;44.792;10.358;2023-07-29T16:07:56;5.30;;;2.75;;
22849;SDS011;11591;44.792;10.358;2023-07-29T16:10:22;5.30;;;2.80;;
22849;SDS011;11591;44.792;10.358;2023-07-29T16:12:48;4.43;;;2.72;;
22849;SDS011;11591;44.792;10.358;2023-07-29T16:15:14;5.82;;;2.53;;
22849;SDS011;11591;44.792;10.358;2023-07-29T16:17:40;7.78;;;3.30;;
22849;SDS011;11591;44.792;10.358;2023-07-29T16:20:06;6.03;;;2.70;;
22849;SDS011;11591;44.792;10.358;2023-07-29T16:22:32;6.82;;;3.22;;
22849;SDS011;11591;44.792;10.358;2023-07-29T16:24:59;5.05;;;2.90;;
22849;SDS011;11591;44.792;10.358;2023-07-29T16:27:26;7.50;;;2.85;;
22849;SDS011;11591;44.792;10.358;2023-07-29T16:29:56;5.00;;;3.30;;
22849;SDS011;11591;44.792;10.358;2023-07-29T16:32:26;5.05;;;3.33;;
22849;SDS011;11591;44.792;10.358;2023-07-29T16:34:52;8.05;;;3.20;;
22849;SDS011;11591;44.792;10.358;2023-07-29T16:37:17;8.63;;;3.53;;
22849;SDS011;11591;44.792;10.358;2023-07-29T16:39:43;8.77;;;3.95;;
22849;SDS011;11591;44.792;10.358;2023-07-29T16:42:09;5.75;;;3.15;;
22849;SDS011;11591;44.792;10.358;2023-07-29T16:44:35;6.78;;;3.10;;
22849;SDS011;11591;44.792;10.358;2023-07-29T16:47:01;4.22;;;2.78;;
22849;SDS011;11591;44.792;10.358;2023-07-29T16:49:27;7.22;;;2.90;;
22849;SDS011;11591;44.792;10.358;2023-07-29T16:51:53;5.13;;;2.75;;
22849;SDS011;11591;44.792;10.358;2023-07-29T16:54:19;5.40;;;3.15;;
22849;SDS011;11591;44.792;10.358;2023-07-29T16:56:46;5.88;;;3.08;;
22849;SDS011;11591;44.792;10.358;2023-07-29T16:59:13;4.72;;;2.70;;
22849;SDS011;11591;44.792;10.358;2023-07-29T17:01:39;5.97;;;3.10;;
22849;SDS011;11591;44.792;10.358;2023-07-29T17:04:04;4.20;;;2.80;;
22849;SDS011;11591;44.792;10.358;2023-07-29T17:06:30;9.07;;;3.05;;
22849;SDS011;11591;44.792;10.358;2023-07-29T17:08:56;5.80;;;2.80;;
22849;SDS011;11591;44.792;10.358;2023-07-29T17:11:22;4.85;;;2.75;;
22849;SDS011;11591;44.792;10.358;2023-07-29T17:13:47;5.25;;;3.03;;
22849;SDS011;11591;44.792;10.358;2023-07-29T17:16:13;6.78;;;3.42;;
22849;SDS011;11591;44.792;10.358;2023-07-29T17:18:39;6.40;;;3.10;;
22849;SDS011;11591;44.792;10.358;2023-07-29T17:21:05;5.63;;;3.10;;
22849;SDS011;11591;44.792;10.358;2023-07-29T17:23:31;5.00;;;3.08;;
22849;SDS011;11591;44.792;10.358;2023-07-29T17:25:56;5.07;;;3.50;;
22849;SDS011;11591;44.792;10.358;2023-07-29T17:28:22;10.52;;;2.90;;
22849;SDS011;11591;44.792;10.358;2023-07-29T17:30:49;3.63;;;2.50;;
22849;SDS011;11591;44.792;10.358;2023-07-29T17:33:16;6.50;;;2.90;;
22849;SDS011;11591;44.792;10.358;2023-07-29T17:35:42;4.78;;;2.95;;
22849;SDS011;11591;44.792;10.358;2023-07-29T17:38:08;7.00;;;3.00;;
22849;SDS011;11591;44.792;10.358;2023-07-29T17:40:35;6.35;;;3.05;;
22849;SDS011;11591;44.792;10.358;2023-07-29T17:43:01;5.70;;;2.80;;
22849;SDS011;11591;44.792;10.358;2023-07-29T17:45:27;5.10;;;3.20;;
22849;SDS011;11591;44.792;10.358;2023-07-29T17:47:53;6.30;;;3.30;;
22849;SDS011;11591;44.792;10.358;2023-07-29T17:50:18;3.92;;;2.90;;
22849;SDS011;11591;44.792;10.358;2023-07-29T17:52:47;5.03;;;2.95;;
22849;SDS011;11591;44.792;10.358;2023-07-29T17:55:13;5.72;;;3.15;;
22849;SDS011;11591;44.792;10.358;2023-07-29T17:57:39;6.28;;;3.03;;
22849;SDS011;11591;44.792;10.358;2023-07-29T18:00:05;5.60;;;3.10;;
22849;SDS011;11591;44.792;10.358;2023-07-29T18:02:32;6.63;;;3.47;;
22849;SDS011;11591;44.792;10.358;2023-07-29T18:04:58;5.40;;;3.20;;
22849;SDS011;11591;44.792;10.358;2023-07-29T18:07:25;5.38;;;3.00;;
22849;SDS011;11591;44.792;10.358;2023-07-29T18:09:51;10.25;;;4.15;;
22849;SDS011;11591;44.792;10.358;2023-07-29T18:12:17;6.57;;;2.72;;
22849;SDS011;11591;44.792;10.358;2023-07-29T18:14:43;9.55;;;3.22;;
22849;SDS011;11591;44.792;10.358;2023-07-29T18:17:09;5.32;;;3.03;;
22849;SDS011;11591;44.792;10.358;2023-07-29T18:19:35;6.03;;;3.30;;
22849;SDS011;11591;44.792;10.358;2023-07-29T18:22:06;4.13;;;2.78;;
22849;SDS011;11591;44.792;10.358;2023-07-29T18:24:32;5.10;;;3.20;;
22849;SDS011;11591;44.792;10.358;2023-07-29T18:26:58;6.15;;;3.40;;
22849;SDS011;11591;44.792;10.358;2023-07-29T18:29:24;6.32;;;3.50;;
22849;SDS011;11591;44.792;10.358;2023-07-29T18:31:50;7.75;;;4.22;;
22849;SDS011;11591;44.792;10.358;2023-07-29T18:34:17;9.05;;;3.80;;
22849;SDS011;11591;44.792;10.358;2023-07-29T18:36:47;5.40;;;3.70;;
22849;SDS011;11591;44.792;10.358;2023-07-29T18:39:13;5.00;;;3.30;;
22849;SDS011;11591;44.792;10.358;2023-07-29T18:41:39;6.13;;;3.60;;
22849;SDS011;11591;44.792;10.358;2023-07-29T18:44:05;6.32;;;3.47;;
22849;SDS011;11591;44.792;10.358;2023-07-29T18:46:31;6.30;;;3.50;;
22849;SDS011;11591;44.792;10.358;2023-07-29T18:48:57;9.23;;;3.90;;
22849;SDS011;11591;44.792;10.358;2023-07-29T18:51:24;7.80;;;3.47;;
22849;SDS011;11591;44.792;10.358;2023-07-29T18:53:50;6.85;;;3.85;;
22849;SDS011;11591;44.792;10.358;2023-07-29T18:56:15;7.22;;;3.65;;
22849;SDS011;11591;44.792;10.358;2023-07-29T18:58:41;9.35;;;3.30;;
22849;SDS011;11591;44.792;10.358;2023-07-29T19:01:07;6.30;;;3.35;;
22849;SDS011;11591;44.792;10.358;2023-07-29T19:03:35;9.43;;;3.60;;
22849;SDS011;11591;44.792;10.358;2023-07-29T19:06:01;6.28;;;3.38;;
22849;SDS011;11591;44.792;10.358;2023-07-29T19:08:27;7.03;;;3.45;;
22849;SDS011;11591;44.792;10.358;2023-07-29T19:10:53;7.28;;;3.88;;
22849;SDS011;11591;44.792;10.358;2023-07-29T19:13:19;8.50;;;3.78;;
22849;SDS011;11591;44.792;10.358;2023-07-29T19:15:49;7.20;;;3.60;;
22849;SDS011;11591;44.792;10.358;2023-07-29T19:18:16;6.80;;;3.35;;
22849;SDS011;11591;44.792;10.358;2023-07-29T19:20:41;9.45;;;3.05;;
22849;SDS011;11591;44.792;10.358;2023-07-29T19:23:10;5.60;;;3.72;;
22849;SDS011;11591;44.792;10.358;2023-07-29T19:25:36;7.78;;;3.97;;
22849;SDS011;11591;44.792;10.358;2023-07-29T19:28:09;9.32;;;3.20;;
22849;SDS011;11591;44.792;10.358;2023-07-29T19:30:35;8.38;;;2.97;;
22849;SDS011;11591;44.792;10.358;2023-07-29T19:33:00;7.35;;;3.88;;
22849;SDS011;11591;44.792;10.358;2023-07-29T19:35:26;11.80;;;3.22;;
22849;SDS011;11591;44.792;10.358;2023-07-29T19:37:52;6.38;;;3.50;;
22849;SDS011;11591;44.792;10.358;2023-07-29T19:40:18;6.05;;;3.72;;
22849;SDS011;11591;44.792;10.358;2023-07-29T19:42:43;6.30;;;3.55;;
22849;SDS011;11591;44.792;10.358;2023-07-29T19:45:09;8.02;;;3.65;;
22849;SDS011;11591;44.792;10.358;2023-07-29T19:47:35;9.07;;;3.05;;
22849;SDS011;11591;44.792;10.358;2023-07-29T19:50:01;5.43;;;3.40;;
22849;SDS011;11591;44.792;10.358;2023-07-29T19:52:27;9.05;;;3.60;;
22849;SDS011;11591;44.792;10.358;2023-07-29T19:54:52;6.65;;;3.63;;
22849;SDS011;11591;44.792;10.358;2023-07-29T19:57:18;6.85;;;3.45;;
22849;SDS011;11591;44.792;10.358;2023-07-29T19:59:44;6.63;;;3.25;;
22849;SDS011;11591;44.792;10.358;2023-07-29T20:02:10;6.60;;;3.05;;
22849;SDS011;11591;44.792;10.358;2023-07-29T20:04:36;7.95;;;3.08;;
22849;SDS011;11591;44.792;10.358;2023-07-29T20:07:02;5.95;;;2.53;;
22849;SDS011;11591;44.792;10.358;2023-07-29T20:09:28;5.93;;;2.88;;
22849;SDS011;11591;44.792;10.358;2023-07-29T20:11:53;11.75;;;2.90;;
22849;SDS011;11591;44.792;10.358;2023-07-29T20:14:19;5.15;;;2.90;;